This is the latest recevied weather packets stored in our database for station/object IZ5RIE-13. If no packets are shown the sender has not sent any weather packets the latest 10 day(s).
| Time | Temp. | Humidity | Pressure | Rain* | Wind** | Luminosity | Snow |
|---|---|---|---|---|---|---|---|
| 1788290241 | 27.22° C | 100% | 1019.4 hPa | - | - | - | - |
| 1788289341 | 27.22° C | 100% | 1019.3 hPa | - | - | - | - |
| 1788288441 | 27.22° C | 100% | 1019.1 hPa | - | - | - | - |
| 1788287540 | 27.78° C | 100% | 1018.8 hPa | - | - | - | - |
| 1788286640 | 27.78° C | 100% | 1018.7 hPa | - | - | - | - |
| 1788285740 | 28.33° C | 100% | 1018.4 hPa | - | - | - | - |
| 1788284840 | 29.44° C | 100% | 1018.4 hPa | - | - | - | - |
| 1788283939 | 30.56° C | 100% | 1018.4 hPa | - | - | - | - |
| 1788283039 | 32.22° C | 100% | 1018.5 hPa | - | - | - | - |
| 1788282139 | 35.56° C | 81% | 1018.4 hPa | - | - | - | - |
| 1788281239 | 36.67° C | 68% | 1018.6 hPa | - | - | - | - |
| 1788280338 | 37.22° C | 63% | 1018.7 hPa | - | - | - | - |
| 1788279438 | 36.67° C | 64% | 1018.9 hPa | - | - | - | - |
| 1788278538 | 36.67° C | 59% | 1018.8 hPa | - | - | - | - |
| 1788277637 | 37.22° C | 55% | 1018.7 hPa | - | - | - | - |
| 1788276737 | 36.11° C | 56% | 1018.9 hPa | - | - | - | - |
| 1788275837 | 36.11° C | 66% | 1018.9 hPa | - | - | - | - |
| 1788274937 | 35.56° C | 67% | 1018.8 hPa | - | - | - | - |
| 1788274036 | 35° C | 75% | 1018.7 hPa | - | - | - | - |
| 1788273136 | 35° C | 73% | 1018.8 hPa | - | - | - | - |
| 1788272236 | 35.56° C | 83% | 1019 hPa | - | - | - | - |
| 1788271335 | 36.11° C | 84% | 1019.1 hPa | - | - | - | - |
| 1788270442 | 36.11° C | 83% | 1019.1 hPa | - | - | - | - |
| 1788269542 | 35° C | 100% | 1019.1 hPa | - | - | - | - |
| 1788268641 | 33.89° C | 100% | 1019.2 hPa | - | - | - | - |
* Rain since midnight (hover to see other rain measurements)
** Current wind speed in m/s (hover to see current wind gust speed)